sensor_id;sensor_type;location;lat;lon;timestamp;temperature;humidity
29501;DHT22;16450;50.288;10.966;2022-12-01T00:01:02;2.70;99.70
29501;DHT22;16450;50.288;10.966;2022-12-01T00:04:03;2.80;99.80
29501;DHT22;16450;50.288;10.966;2022-12-01T00:07:04;2.70;99.80
29501;DHT22;16450;50.288;10.966;2022-12-01T00:10:05;2.70;99.80
29501;DHT22;16450;50.288;10.966;2022-12-01T00:13:24;2.70;99.80
29501;DHT22;16450;50.288;10.966;2022-12-01T00:16:25;2.80;99.90
29501;DHT22;16450;50.288;10.966;2022-12-01T00:19:26;2.80;99.90
29501;DHT22;16450;50.288;10.966;2022-12-01T00:22:27;2.80;99.90
29501;DHT22;16450;50.288;10.966;2022-12-01T00:25:28;2.80;99.90
29501;DHT22;16450;50.288;10.966;2022-12-01T00:28:29;2.80;99.90
29501;DHT22;16450;50.288;10.966;2022-12-01T00:31:29;2.80;99.90
29501;DHT22;16450;50.288;10.966;2022-12-01T00:34:30;2.80;99.90
29501;DHT22;16450;50.288;10.966;2022-12-01T00:37:32;2.80;99.90
29501;DHT22;16450;50.288;10.966;2022-12-01T00:40:33;2.70;99.90
29501;DHT22;16450;50.288;10.966;2022-12-01T00:43:34;2.70;99.90
29501;DHT22;16450;50.288;10.966;2022-12-01T00:46:34;2.80;99.90
29501;DHT22;16450;50.288;10.966;2022-12-01T00:49:35;2.80;99.90
29501;DHT22;16450;50.288;10.966;2022-12-01T00:52:35;2.80;99.90
29501;DHT22;16450;50.288;10.966;2022-12-01T00:55:36;2.80;99.90
29501;DHT22;16450;50.288;10.966;2022-12-01T00:58:37;2.80;99.90
29501;DHT22;16450;50.288;10.966;2022-12-01T01:01:38;2.80;99.90
29501;DHT22;16450;50.288;10.966;2022-12-01T01:04:39;2.80;99.90
29501;DHT22;16450;50.288;10.966;2022-12-01T01:07:40;2.80;99.90
29501;DHT22;16450;50.288;10.966;2022-12-01T01:10:42;2.80;99.90
29501;DHT22;16450;50.288;10.966;2022-12-01T01:13:43;2.80;99.90
29501;DHT22;16450;50.288;10.966;2022-12-01T01:16:43;2.80;99.90
29501;DHT22;16450;50.288;10.966;2022-12-01T01:19:44;2.80;99.90
29501;DHT22;16450;50.288;10.966;2022-12-01T01:22:45;2.80;99.90
29501;DHT22;16450;50.288;10.966;2022-12-01T01:25:45;2.80;99.90
29501;DHT22;16450;50.288;10.966;2022-12-01T01:28:47;2.80;99.90
29501;DHT22;16450;50.288;10.966;2022-12-01T01:31:48;2.90;99.90
29501;DHT22;16450;50.288;10.966;2022-12-01T01:34:48;2.90;99.90
29501;DHT22;16450;50.288;10.966;2022-12-01T01:37:49;2.90;99.90
29501;DHT22;16450;50.288;10.966;2022-12-01T01:40:50;2.90;99.90
29501;DHT22;16450;50.288;10.966;2022-12-01T01:43:53;2.90;99.90
29501;DHT22;16450;50.288;10.966;2022-12-01T01:46:54;2.90;99.90
29501;DHT22;16450;50.288;10.966;2022-12-01T01:49:56;2.90;99.90
29501;DHT22;16450;50.288;10.966;2022-12-01T01:53:03;3.00;99.90
29501;DHT22;16450;50.288;10.966;2022-12-01T01:56:05;2.90;99.90
29501;DHT22;16450;50.288;10.966;2022-12-01T01:59:06;2.90;99.90
29501;DHT22;16450;50.288;10.966;2022-12-01T02:02:09;2.90;99.90
29501;DHT22;16450;50.288;10.966;2022-12-01T02:05:26;3.00;99.90
29501;DHT22;16450;50.288;10.966;2022-12-01T02:08:27;3.00;99.90
29501;DHT22;16450;50.288;10.966;2022-12-01T02:18:14;3.00;99.90
29501;DHT22;16450;50.288;10.966;2022-12-01T02:31:21;3.00;99.80
29501;DHT22;16450;50.288;10.966;2022-12-01T02:34:28;3.00;99.90
29501;DHT22;16450;50.288;10.966;2022-12-01T02:37:53;3.00;99.90
29501;DHT22;16450;50.288;10.966;2022-12-01T02:44:33;3.00;99.90
29501;DHT22;16450;50.288;10.966;2022-12-01T02:47:36;3.00;99.90
29501;DHT22;16450;50.288;10.966;2022-12-01T02:50:38;3.10;99.90
29501;DHT22;16450;50.288;10.966;2022-12-01T02:53:40;3.10;99.90
29501;DHT22;16450;50.288;10.966;2022-12-01T02:56:43;3.10;99.90
29501;DHT22;16450;50.288;10.966;2022-12-01T02:59:49;3.10;99.90
29501;DHT22;16450;50.288;10.966;2022-12-01T03:06:14;3.10;99.90
29501;DHT22;16450;50.288;10.966;2022-12-01T03:12:46;3.10;99.90
29501;DHT22;16450;50.288;10.966;2022-12-01T03:16:06;3.10;99.90
29501;DHT22;16450;50.288;10.966;2022-12-01T03:19:17;3.10;99.90
29501;DHT22;16450;50.288;10.966;2022-12-01T03:22:25;3.10;99.90
29501;DHT22;16450;50.288;10.966;2022-12-01T03:25:29;3.10;99.90
29501;DHT22;16450;50.288;10.966;2022-12-01T03:28:34;3.10;99.90
29501;DHT22;16450;50.288;10.966;2022-12-01T03:31:42;3.10;99.90
29501;DHT22;16450;50.288;10.966;2022-12-01T03:34:58;3.10;99.90
29501;DHT22;16450;50.288;10.966;2022-12-01T03:38:16;3.10;99.90
29501;DHT22;16450;50.288;10.966;2022-12-01T03:41:24;3.10;99.90
29501;DHT22;16450;50.288;10.966;2022-12-01T03:44:33;3.10;99.90
29501;DHT22;16450;50.288;10.966;2022-12-01T03:47:36;3.10;99.90
29501;DHT22;16450;50.288;10.966;2022-12-01T03:50:55;3.10;99.90
29501;DHT22;16450;50.288;10.966;2022-12-01T03:54:11;3.10;99.90
29501;DHT22;16450;50.288;10.966;2022-12-01T04:00:42;3.10;99.90
29501;DHT22;16450;50.288;10.966;2022-12-01T04:03:45;3.10;99.90
29501;DHT22;16450;50.288;10.966;2022-12-01T04:06:47;3.10;99.90
29501;DHT22;16450;50.288;10.966;2022-12-01T04:09:49;3.10;99.90
29501;DHT22;16450;50.288;10.966;2022-12-01T04:12:50;3.10;99.90
29501;DHT22;16450;50.288;10.966;2022-12-01T04:15:58;3.10;99.90
29501;DHT22;16450;50.288;10.966;2022-12-01T04:18:58;3.10;99.90
29501;DHT22;16450;50.288;10.966;2022-12-01T04:21:59;3.00;99.90
29501;DHT22;16450;50.288;10.966;2022-12-01T04:24:59;3.00;99.90
29501;DHT22;16450;50.288;10.966;2022-12-01T04:28:00;3.00;99.90
29501;DHT22;16450;50.288;10.966;2022-12-01T04:31:01;3.00;99.90
29501;DHT22;16450;50.288;10.966;2022-12-01T04:34:02;3.00;99.90
29501;DHT22;16450;50.288;10.966;2022-12-01T04:37:04;2.90;99.90
29501;DHT22;16450;50.288;10.966;2022-12-01T04:40:06;2.90;99.90
29501;DHT22;16450;50.288;10.966;2022-12-01T04:43:07;2.80;99.70
29501;DHT22;16450;50.288;10.966;2022-12-01T04:46:08;2.70;99.60
29501;DHT22;16450;50.288;10.966;2022-12-01T04:49:09;2.70;99.40
29501;DHT22;16450;50.288;10.966;2022-12-01T04:52:09;2.60;99.30
29501;DHT22;16450;50.288;10.966;2022-12-01T04:55:10;2.50;99.20
29501;DHT22;16450;50.288;10.966;2022-12-01T04:58:11;2.40;99.20
29501;DHT22;16450;50.288;10.966;2022-12-01T05:01:14;2.30;99.20
29501;DHT22;16450;50.288;10.966;2022-12-01T05:04:15;2.20;99.10
29501;DHT22;16450;50.288;10.966;2022-12-01T05:07:16;2.10;99.10
29501;DHT22;16450;50.288;10.966;2022-12-01T05:10:17;2.00;99.00
29501;DHT22;16450;50.288;10.966;2022-12-01T05:13:18;2.00;99.00
29501;DHT22;16450;50.288;10.966;2022-12-01T05:16:27;1.90;98.90
29501;DHT22;16450;50.288;10.966;2022-12-01T05:19:28;1.80;98.80
29501;DHT22;16450;50.288;10.966;2022-12-01T05:22:47;1.80;98.90
29501;DHT22;16450;50.288;10.966;2022-12-01T05:25:48;1.70;98.90
29501;DHT22;16450;50.288;10.966;2022-12-01T05:28:48;1.60;98.90
29501;DHT22;16450;50.288;10.966;2022-12-01T05:31:49;1.60;98.90
29501;DHT22;16450;50.288;10.966;2022-12-01T05:34:49;1.50;99.00
29501;DHT22;16450;50.288;10.966;2022-12-01T05:37:50;1.50;99.10
29501;DHT22;16450;50.288;10.966;2022-12-01T05:40:52;1.40;99.20
29501;DHT22;16450;50.288;10.966;2022-12-01T05:43:53;1.40;99.30
29501;DHT22;16450;50.288;10.966;2022-12-01T05:46:53;1.40;99.50
29501;DHT22;16450;50.288;10.966;2022-12-01T05:49:54;1.40;99.60
29501;DHT22;16450;50.288;10.966;2022-12-01T05:52:55;1.40;99.80
29501;DHT22;16450;50.288;10.966;2022-12-01T05:55:55;1.40;99.90
29501;DHT22;16450;50.288;10.966;2022-12-01T05:58:56;1.40;99.90
29501;DHT22;16450;50.288;10.966;2022-12-01T06:01:57;1.40;99.90
29501;DHT22;16450;50.288;10.966;2022-12-01T06:04:57;1.40;99.90
29501;DHT22;16450;50.288;10.966;2022-12-01T06:07:58;1.40;99.90
29501;DHT22;16450;50.288;10.966;2022-12-01T06:10:59;1.40;99.90
29501;DHT22;16450;50.288;10.966;2022-12-01T06:13:59;1.50;99.90
29501;DHT22;16450;50.288;10.966;2022-12-01T06:17:00;1.50;99.90
29501;DHT22;16450;50.288;10.966;2022-12-01T06:20:01;1.50;99.90
29501;DHT22;16450;50.288;10.966;2022-12-01T06:23:02;1.60;99.90
29501;DHT22;16450;50.288;10.966;2022-12-01T06:26:02;1.50;99.90
29501;DHT22;16450;50.288;10.966;2022-12-01T06:29:03;1.50;99.90
29501;DHT22;16450;50.288;10.966;2022-12-01T06:32:04;1.50;99.90
29501;DHT22;16450;50.288;10.966;2022-12-01T06:35:05;1.60;99.90
29501;DHT22;16450;50.288;10.966;2022-12-01T06:38:06;1.60;99.90
29501;DHT22;16450;50.288;10.966;2022-12-01T06:41:06;1.60;99.90
29501;DHT22;16450;50.288;10.966;2022-12-01T06:44:07;1.60;99.90
29501;DHT22;16450;50.288;10.966;2022-12-01T06:47:07;1.60;99.90
29501;DHT22;16450;50.288;10.966;2022-12-01T06:50:08;1.70;99.90
29501;DHT22;16450;50.288;10.966;2022-12-01T06:53:11;1.70;99.90
29501;DHT22;16450;50.288;10.966;2022-12-01T06:56:11;1.70;99.90
29501;DHT22;16450;50.288;10.966;2022-12-01T06:59:12;1.70;99.90
29501;DHT22;16450;50.288;10.966;2022-12-01T07:02:13;1.70;99.90
29501;DHT22;16450;50.288;10.966;2022-12-01T07:05:13;1.70;99.90
29501;DHT22;16450;50.288;10.966;2022-12-01T07:08:14;1.80;99.90
29501;DHT22;16450;50.288;10.966;2022-12-01T07:11:15;1.80;99.90
29501;DHT22;16450;50.288;10.966;2022-12-01T07:14:21;1.80;99.90
29501;DHT22;16450;50.288;10.966;2022-12-01T07:17:21;1.80;99.90
29501;DHT22;16450;50.288;10.966;2022-12-01T07:20:22;1.80;99.90
29501;DHT22;16450;50.288;10.966;2022-12-01T07:23:22;1.80;99.90
29501;DHT22;16450;50.288;10.966;2022-12-01T07:26:23;1.80;99.90
29501;DHT22;16450;50.288;10.966;2022-12-01T07:29:24;1.90;99.90
29501;DHT22;16450;50.288;10.966;2022-12-01T07:32:24;1.90;99.90
29501;DHT22;16450;50.288;10.966;2022-12-01T07:35:25;1.90;99.90
29501;DHT22;16450;50.288;10.966;2022-12-01T07:38:27;2.00;99.90
29501;DHT22;16450;50.288;10.966;2022-12-01T07:41:29;2.00;99.90
29501;DHT22;16450;50.288;10.966;2022-12-01T07:44:29;2.00;99.90
29501;DHT22;16450;50.288;10.966;2022-12-01T07:47:30;2.10;99.90
29501;DHT22;16450;50.288;10.966;2022-12-01T07:50:30;2.10;99.90
29501;DHT22;16450;50.288;10.966;2022-12-01T07:53:32;2.10;99.90
29501;DHT22;16450;50.288;10.966;2022-12-01T07:56:33;2.10;99.90
29501;DHT22;16450;50.288;10.966;2022-12-01T07:59:33;2.20;99.90
29501;DHT22;16450;50.288;10.966;2022-12-01T08:02:34;2.20;99.90
29501;DHT22;16450;50.288;10.966;2022-12-01T08:05:35;2.30;99.90
29501;DHT22;16450;50.288;10.966;2022-12-01T08:08:37;2.30;99.90
29501;DHT22;16450;50.288;10.966;2022-12-01T08:11:38;2.40;99.90
29501;DHT22;16450;50.288;10.966;2022-12-01T08:14:38;2.40;99.90
29501;DHT22;16450;50.288;10.966;2022-12-01T08:17:39;2.40;99.90
29501;DHT22;16450;50.288;10.966;2022-12-01T08:20:39;2.50;99.90
29501;DHT22;16450;50.288;10.966;2022-12-01T08:23:40;2.50;99.90
29501;DHT22;16450;50.288;10.966;2022-12-01T08:26:41;2.60;99.90
29501;DHT22;16450;50.288;10.966;2022-12-01T08:29:42;2.70;99.90
29501;DHT22;16450;50.288;10.966;2022-12-01T08:32:42;2.70;99.90
29501;DHT22;16450;50.288;10.966;2022-12-01T08:35:43;2.80;99.90
29501;DHT22;16450;50.288;10.966;2022-12-01T08:38:45;2.90;99.90
29501;DHT22;16450;50.288;10.966;2022-12-01T08:41:46;2.90;99.90
29501;DHT22;16450;50.288;10.966;2022-12-01T08:44:47;3.00;99.90
29501;DHT22;16450;50.288;10.966;2022-12-01T08:47:48;3.00;99.90
29501;DHT22;16450;50.288;10.966;2022-12-01T08:50:49;3.00;99.90
29501;DHT22;16450;50.288;10.966;2022-12-01T08:53:50;3.10;99.90
29501;DHT22;16450;50.288;10.966;2022-12-01T08:56:50;3.10;99.90
29501;DHT22;16450;50.288;10.966;2022-12-01T08:59:51;3.10;99.90
29501;DHT22;16450;50.288;10.966;2022-12-01T09:02:51;3.20;99.90
29501;DHT22;16450;50.288;10.966;2022-12-01T09:05:52;3.20;99.90
29501;DHT22;16450;50.288;10.966;2022-12-01T09:08:52;3.20;99.90
29501;DHT22;16450;50.288;10.966;2022-12-01T09:11:54;3.20;99.90
29501;DHT22;16450;50.288;10.966;2022-12-01T09:14:55;3.30;99.90
29501;DHT22;16450;50.288;10.966;2022-12-01T09:17:55;3.30;99.90
29501;DHT22;16450;50.288;10.966;2022-12-01T09:20:56;3.40;99.90
29501;DHT22;16450;50.288;10.966;2022-12-01T09:23:58;3.40;99.90
29501;DHT22;16450;50.288;10.966;2022-12-01T09:26:59;3.40;99.90
29501;DHT22;16450;50.288;10.966;2022-12-01T09:30:00;3.50;99.90
29501;DHT22;16450;50.288;10.966;2022-12-01T09:33:01;3.60;99.90
29501;DHT22;16450;50.288;10.966;2022-12-01T09:36:02;3.60;99.90
29501;DHT22;16450;50.288;10.966;2022-12-01T09:39:07;3.60;99.90
29501;DHT22;16450;50.288;10.966;2022-12-01T09:42:13;3.70;99.90
29501;DHT22;16450;50.288;10.966;2022-12-01T09:45:29;3.70;99.90
29501;DHT22;16450;50.288;10.966;2022-12-01T09:48:36;3.80;99.90
29501;DHT22;16450;50.288;10.966;2022-12-01T09:51:42;3.80;99.90
29501;DHT22;16450;50.288;10.966;2022-12-01T09:54:43;3.90;99.90
29501;DHT22;16450;50.288;10.966;2022-12-01T09:57:47;3.90;99.90
29501;DHT22;16450;50.288;10.966;2022-12-01T10:00:49;4.00;99.90
29501;DHT22;16450;50.288;10.966;2022-12-01T10:03:54;4.00;99.90
29501;DHT22;16450;50.288;10.966;2022-12-01T10:07:05;4.10;99.90
29501;DHT22;16450;50.288;10.966;2022-12-01T10:10:14;4.10;99.90
29501;DHT22;16450;50.288;10.966;2022-12-01T10:13:19;4.20;99.90
29501;DHT22;16450;50.288;10.966;2022-12-01T10:16:26;4.20;99.90
29501;DHT22;16450;50.288;10.966;2022-12-01T10:25:58;4.40;99.90
29501;DHT22;16450;50.288;10.966;2022-12-01T10:32:04;4.50;99.90
29501;DHT22;16450;50.288;10.966;2022-12-01T10:35:14;4.50;99.90
29501;DHT22;16450;50.288;10.966;2022-12-01T10:38:27;4.50;99.90
29501;DHT22;16450;50.288;10.966;2022-12-01T10:41:33;4.50;99.90
29501;DHT22;16450;50.288;10.966;2022-12-01T10:44:35;4.60;99.90
29501;DHT22;16450;50.288;10.966;2022-12-01T10:47:36;4.60;99.90
29501;DHT22;16450;50.288;10.966;2022-12-01T10:50:36;4.60;99.90
29501;DHT22;16450;50.288;10.966;2022-12-01T10:53:37;4.70;99.90
29501;DHT22;16450;50.288;10.966;2022-12-01T10:56:43;4.70;99.90
29501;DHT22;16450;50.288;10.966;2022-12-01T10:59:58;4.70;99.90
29501;DHT22;16450;50.288;10.966;2022-12-01T11:02:59;4.80;99.90
29501;DHT22;16450;50.288;10.966;2022-12-01T11:06:03;4.80;99.90
29501;DHT22;16450;50.288;10.966;2022-12-01T11:09:13;4.80;99.90
29501;DHT22;16450;50.288;10.966;2022-12-01T11:12:17;4.80;99.90
29501;DHT22;16450;50.288;10.966;2022-12-01T11:15:25;4.80;99.90
29501;DHT22;16450;50.288;10.966;2022-12-01T11:21:27;4.90;99.90
29501;DHT22;16450;50.288;10.966;2022-12-01T11:24:29;4.90;99.90
29501;DHT22;16450;50.288;10.966;2022-12-01T11:27:35;5.00;99.90
29501;DHT22;16450;50.288;10.966;2022-12-01T11:30:36;5.00;99.90
29501;DHT22;16450;50.288;10.966;2022-12-01T11:33:53;5.00;99.90
29501;DHT22;16450;50.288;10.966;2022-12-01T11:37:00;5.00;99.90
29501;DHT22;16450;50.288;10.966;2022-12-01T11:40:24;5.10;99.90
29501;DHT22;16450;50.288;10.966;2022-12-01T11:43:32;5.10;99.90
29501;DHT22;16450;50.288;10.966;2022-12-01T11:46:37;5.10;99.90
29501;DHT22;16450;50.288;10.966;2022-12-01T11:49:41;5.10;99.90
29501;DHT22;16450;50.288;10.966;2022-12-01T11:52:46;5.10;99.90
29501;DHT22;16450;50.288;10.966;2022-12-01T11:55:47;5.20;99.90
29501;DHT22;16450;50.288;10.966;2022-12-01T11:58:49;5.10;99.90
29501;DHT22;16450;50.288;10.966;2022-12-01T12:05:44;5.20;99.90
29501;DHT22;16450;50.288;10.966;2022-12-01T12:09:03;5.20;99.90
29501;DHT22;16450;50.288;10.966;2022-12-01T12:16:07;5.30;99.90
29501;DHT22;16450;50.288;10.966;2022-12-01T12:19:43;5.30;99.90
29501;DHT22;16450;50.288;10.966;2022-12-01T12:23:29;5.40;99.90
29501;DHT22;16450;50.288;10.966;2022-12-01T12:36:37;5.40;99.90
29501;DHT22;16450;50.288;10.966;2022-12-01T12:46:33;5.50;99.90
29501;DHT22;16450;50.288;10.966;2022-12-01T12:52:58;5.50;99.80
29501;DHT22;16450;50.288;10.966;2022-12-01T12:56:04;5.50;99.90
29501;DHT22;16450;50.288;10.966;2022-12-01T12:59:12;5.60;99.90
29501;DHT22;16450;50.288;10.966;2022-12-01T13:02:23;5.50;99.90
29501;DHT22;16450;50.288;10.966;2022-12-01T13:05:48;5.50;99.90
29501;DHT22;16450;50.288;10.966;2022-12-01T13:08:53;5.60;99.60
29501;DHT22;16450;50.288;10.966;2022-12-01T13:12:08;5.60;99.90
29501;DHT22;16450;50.288;10.966;2022-12-01T13:15:17;5.60;99.80
29501;DHT22;16450;50.288;10.966;2022-12-01T13:18:26;5.60;99.90
29501;DHT22;16450;50.288;10.966;2022-12-01T13:21:40;5.50;99.90
29501;DHT22;16450;50.288;10.966;2022-12-01T13:24:41;5.50;99.90
29501;DHT22;16450;50.288;10.966;2022-12-01T13:27:43;5.50;99.90
29501;DHT22;16450;50.288;10.966;2022-12-01T13:30:58;5.60;99.90
29501;DHT22;16450;50.288;10.966;2022-12-01T13:34:03;5.50;99.70
29501;DHT22;16450;50.288;10.966;2022-12-01T13:37:04;5.60;99.90
29501;DHT22;16450;50.288;10.966;2022-12-01T13:40:26;5.50;99.90
29501;DHT22;16450;50.288;10.966;2022-12-01T13:43:27;5.50;99.40
29501;DHT22;16450;50.288;10.966;2022-12-01T13:49:49;5.50;99.90
29501;DHT22;16450;50.288;10.966;2022-12-01T13:52:49;5.50;99.90
29501;DHT22;16450;50.288;10.966;2022-12-01T13:56:25;5.50;99.90
29501;DHT22;16450;50.288;10.966;2022-12-01T14:02:38;5.50;99.40
29501;DHT22;16450;50.288;10.966;2022-12-01T14:08:47;5.40;99.90
29501;DHT22;16450;50.288;10.966;2022-12-01T14:12:03;5.40;99.50
29501;DHT22;16450;50.288;10.966;2022-12-01T14:15:26;5.40;99.30
29501;DHT22;16450;50.288;10.966;2022-12-01T14:18:32;5.30;99.20
29501;DHT22;16450;50.288;10.966;2022-12-01T14:21:46;5.30;99.90
29501;DHT22;16450;50.288;10.966;2022-12-01T14:24:51;5.30;99.30
29501;DHT22;16450;50.288;10.966;2022-12-01T14:27:54;5.30;99.80
29501;DHT22;16450;50.288;10.966;2022-12-01T14:34:16;5.20;99.90
29501;DHT22;16450;50.288;10.966;2022-12-01T14:37:22;5.10;99.00
29501;DHT22;16450;50.288;10.966;2022-12-01T14:40:28;5.10;99.90
29501;DHT22;16450;50.288;10.966;2022-12-01T14:43:29;5.10;99.50
29501;DHT22;16450;50.288;10.966;2022-12-01T14:53:44;4.90;98.80
29501;DHT22;16450;50.288;10.966;2022-12-01T14:56:47;4.90;99.60
29501;DHT22;16450;50.288;10.966;2022-12-01T15:00:11;4.80;99.70
29501;DHT22;16450;50.288;10.966;2022-12-01T15:03:13;4.80;98.80
29501;DHT22;16450;50.288;10.966;2022-12-01T15:06:25;4.70;99.70
29501;DHT22;16450;50.288;10.966;2022-12-01T15:09:26;4.70;99.10
29501;DHT22;16450;50.288;10.966;2022-12-01T15:12:28;4.60;99.80
29501;DHT22;16450;50.288;10.966;2022-12-01T15:15:29;4.60;99.60
29501;DHT22;16450;50.288;10.966;2022-12-01T15:18:35;4.60;99.90
29501;DHT22;16450;50.288;10.966;2022-12-01T15:21:36;4.60;99.50
29501;DHT22;16450;50.288;10.966;2022-12-01T15:24:37;4.50;99.80
29501;DHT22;16450;50.288;10.966;2022-12-01T15:27:37;4.60;99.80
29501;DHT22;16450;50.288;10.966;2022-12-01T15:30:43;4.50;99.80
29501;DHT22;16450;50.288;10.966;2022-12-01T15:33:50;4.50;99.30
29501;DHT22;16450;50.288;10.966;2022-12-01T15:36:51;4.50;99.30
29501;DHT22;16450;50.288;10.966;2022-12-01T15:40:04;4.40;99.70
29501;DHT22;16450;50.288;10.966;2022-12-01T15:43:18;4.40;99.20
29501;DHT22;16450;50.288;10.966;2022-12-01T15:46:29;4.40;99.20
29501;DHT22;16450;50.288;10.966;2022-12-01T15:49:30;4.30;99.20
29501;DHT22;16450;50.288;10.966;2022-12-01T15:52:41;4.30;99.80
29501;DHT22;16450;50.288;10.966;2022-12-01T15:55:45;4.30;99.20
29501;DHT22;16450;50.288;10.966;2022-12-01T15:58:47;4.40;99.70
29501;DHT22;16450;50.288;10.966;2022-12-01T16:01:48;4.30;99.80
29501;DHT22;16450;50.288;10.966;2022-12-01T16:08:28;4.30;99.10
29501;DHT22;16450;50.288;10.966;2022-12-01T16:11:29;4.30;99.80
29501;DHT22;16450;50.288;10.966;2022-12-01T16:14:30;4.30;99.70
29501;DHT22;16450;50.288;10.966;2022-12-01T16:18:00;4.20;99.90
29501;DHT22;16450;50.288;10.966;2022-12-01T16:21:20;4.20;98.70
29501;DHT22;16450;50.288;10.966;2022-12-01T16:24:29;4.20;99.80
29501;DHT22;16450;50.288;10.966;2022-12-01T16:27:31;4.10;99.20
29501;DHT22;16450;50.288;10.966;2022-12-01T16:30:38;4.20;99.80
29501;DHT22;16450;50.288;10.966;2022-12-01T16:33:39;4.10;99.40
29501;DHT22;16450;50.288;10.966;2022-12-01T16:36:39;4.20;99.90
29501;DHT22;16450;50.288;10.966;2022-12-01T16:39:40;4.10;99.90
29501;DHT22;16450;50.288;10.966;2022-12-01T16:42:41;4.10;99.80
29501;DHT22;16450;50.288;10.966;2022-12-01T16:45:43;4.10;99.80
29501;DHT22;16450;50.288;10.966;2022-12-01T16:48:44;4.10;99.80
29501;DHT22;16450;50.288;10.966;2022-12-01T16:51:44;4.10;99.80
29501;DHT22;16450;50.288;10.966;2022-12-01T16:54:47;4.10;99.90
29501;DHT22;16450;50.288;10.966;2022-12-01T16:57:48;4.00;99.60
29501;DHT22;16450;50.288;10.966;2022-12-01T17:00:49;4.00;99.80
29501;DHT22;16450;50.288;10.966;2022-12-01T17:03:52;4.00;99.80
29501;DHT22;16450;50.288;10.966;2022-12-01T17:06:52;4.00;99.80
29501;DHT22;16450;50.288;10.966;2022-12-01T17:09:53;4.00;99.80
29501;DHT22;16450;50.288;10.966;2022-12-01T17:12:54;4.00;99.80
29501;DHT22;16450;50.288;10.966;2022-12-01T17:15:55;4.00;99.80
29501;DHT22;16450;50.288;10.966;2022-12-01T17:18:59;4.00;99.90
29501;DHT22;16450;50.288;10.966;2022-12-01T17:21:59;4.00;99.70
29501;DHT22;16450;50.288;10.966;2022-12-01T17:25:00;4.00;99.90
29501;DHT22;16450;50.288;10.966;2022-12-01T17:28:01;4.00;99.80
29501;DHT22;16450;50.288;10.966;2022-12-01T17:31:03;3.90;99.80
29501;DHT22;16450;50.288;10.966;2022-12-01T17:34:04;4.00;99.70
29501;DHT22;16450;50.288;10.966;2022-12-01T17:37:04;4.00;99.80
29501;DHT22;16450;50.288;10.966;2022-12-01T17:40:06;3.90;99.70
29501;DHT22;16450;50.288;10.966;2022-12-01T17:43:08;3.90;99.60
29501;DHT22;16450;50.288;10.966;2022-12-01T17:46:10;3.90;99.70
29501;DHT22;16450;50.288;10.966;2022-12-01T17:49:11;3.90;99.50
29501;DHT22;16450;50.288;10.966;2022-12-01T17:52:12;3.80;99.60
29501;DHT22;16450;50.288;10.966;2022-12-01T17:55:13;3.80;99.70
29501;DHT22;16450;50.288;10.966;2022-12-01T17:58:14;3.80;99.70
29501;DHT22;16450;50.288;10.966;2022-12-01T18:01:19;3.80;99.70
29501;DHT22;16450;50.288;10.966;2022-12-01T18:04:20;3.80;99.50
29501;DHT22;16450;50.288;10.966;2022-12-01T18:07:20;3.80;99.80
29501;DHT22;16450;50.288;10.966;2022-12-01T18:10:21;3.70;99.80
29501;DHT22;16450;50.288;10.966;2022-12-01T18:13:21;3.70;99.80
29501;DHT22;16450;50.288;10.966;2022-12-01T18:16:25;3.70;99.80
29501;DHT22;16450;50.288;10.966;2022-12-01T18:19:25;3.70;99.80
29501;DHT22;16450;50.288;10.966;2022-12-01T18:22:26;3.70;99.90
29501;DHT22;16450;50.288;10.966;2022-12-01T18:25:27;3.70;99.90
29501;DHT22;16450;50.288;10.966;2022-12-01T18:28:28;3.70;99.90
29501;DHT22;16450;50.288;10.966;2022-12-01T18:31:29;3.70;99.90
29501;DHT22;16450;50.288;10.966;2022-12-01T18:34:29;3.70;99.90
29501;DHT22;16450;50.288;10.966;2022-12-01T18:37:30;3.70;99.90
29501;DHT22;16450;50.288;10.966;2022-12-01T18:40:31;3.70;99.90
29501;DHT22;16450;50.288;10.966;2022-12-01T18:43:35;3.70;99.90
29501;DHT22;16450;50.288;10.966;2022-12-01T18:46:36;3.70;99.90
29501;DHT22;16450;50.288;10.966;2022-12-01T18:49:37;3.60;99.80
29501;DHT22;16450;50.288;10.966;2022-12-01T18:52:37;3.70;99.80
29501;DHT22;16450;50.288;10.966;2022-12-01T18:55:38;3.60;99.80
29501;DHT22;16450;50.288;10.966;2022-12-01T18:58:39;3.60;99.80
29501;DHT22;16450;50.288;10.966;2022-12-01T19:01:41;3.60;99.80
29501;DHT22;16450;50.288;10.966;2022-12-01T19:04:41;3.60;99.80
29501;DHT22;16450;50.288;10.966;2022-12-01T19:07:42;3.60;99.90
29501;DHT22;16450;50.288;10.966;2022-12-01T19:10:43;3.60;99.90
29501;DHT22;16450;50.288;10.966;2022-12-01T19:13:44;3.60;99.90
29501;DHT22;16450;50.288;10.966;2022-12-01T19:16:45;3.50;99.90
29501;DHT22;16450;50.288;10.966;2022-12-01T19:19:46;3.50;99.90
29501;DHT22;16450;50.288;10.966;2022-12-01T19:22:46;3.50;99.90
29501;DHT22;16450;50.288;10.966;2022-12-01T19:25:47;3.50;99.90
29501;DHT22;16450;50.288;10.966;2022-12-01T19:28:48;3.50;99.90
29501;DHT22;16450;50.288;10.966;2022-12-01T19:31:49;3.50;99.90
29501;DHT22;16450;50.288;10.966;2022-12-01T19:34:50;3.50;99.90
29501;DHT22;16450;50.288;10.966;2022-12-01T19:37:50;3.50;99.90
29501;DHT22;16450;50.288;10.966;2022-12-01T19:40:51;3.50;99.90
29501;DHT22;16450;50.288;10.966;2022-12-01T19:43:53;3.40;99.90
29501;DHT22;16450;50.288;10.966;2022-12-01T19:46:53;3.40;99.90
29501;DHT22;16450;50.288;10.966;2022-12-01T19:49:54;3.40;99.90
29501;DHT22;16450;50.288;10.966;2022-12-01T19:52:55;3.40;99.90
29501;DHT22;16450;50.288;10.966;2022-12-01T19:56:03;3.40;99.90
29501;DHT22;16450;50.288;10.966;2022-12-01T19:59:04;3.40;99.80
29501;DHT22;16450;50.288;10.966;2022-12-01T20:02:07;3.40;99.90
29501;DHT22;16450;50.288;10.966;2022-12-01T20:05:07;3.40;99.90
29501;DHT22;16450;50.288;10.966;2022-12-01T20:08:08;3.30;99.90
29501;DHT22;16450;50.288;10.966;2022-12-01T20:11:13;3.30;99.90
29501;DHT22;16450;50.288;10.966;2022-12-01T20:14:14;3.30;99.90
29501;DHT22;16450;50.288;10.966;2022-12-01T20:17:15;3.30;99.90
29501;DHT22;16450;50.288;10.966;2022-12-01T20:20:16;3.20;99.90
29501;DHT22;16450;50.288;10.966;2022-12-01T20:23:17;3.20;99.90
29501;DHT22;16450;50.288;10.966;2022-12-01T20:26:18;3.20;99.90
29501;DHT22;16450;50.288;10.966;2022-12-01T20:29:24;3.20;99.90
29501;DHT22;16450;50.288;10.966;2022-12-01T20:32:26;3.20;99.90
29501;DHT22;16450;50.288;10.966;2022-12-01T20:35:26;3.20;99.90
29501;DHT22;16450;50.288;10.966;2022-12-01T20:38:27;3.10;99.90
29501;DHT22;16450;50.288;10.966;2022-12-01T20:41:28;3.20;99.90
29501;DHT22;16450;50.288;10.966;2022-12-01T20:44:29;3.10;99.90
29501;DHT22;16450;50.288;10.966;2022-12-01T20:47:30;3.10;99.90
29501;DHT22;16450;50.288;10.966;2022-12-01T20:50:31;3.10;99.90
29501;DHT22;16450;50.288;10.966;2022-12-01T20:53:32;3.20;99.90